sensor_id;sensor_type;location;lat;lon;timestamp;P1;durP1;ratioP1;P2;durP2;ratioP2
55260;SDS011;41123;51.416;6.758;2022-07-29T00:02:03;6.82;;;1.80;;
55260;SDS011;41123;51.416;6.758;2022-07-29T00:04:30;7.68;;;1.50;;
55260;SDS011;41123;51.416;6.758;2022-07-29T00:06:56;3.70;;;1.40;;
55260;SDS011;41123;51.416;6.758;2022-07-29T00:09:22;6.10;;;1.55;;
55260;SDS011;41123;51.416;6.758;2022-07-29T00:11:48;7.38;;;1.55;;
55260;SDS011;41123;51.416;6.758;2022-07-29T00:14:14;7.73;;;1.40;;
55260;SDS011;41123;51.416;6.758;2022-07-29T00:16:41;5.03;;;1.43;;
55260;SDS011;41123;51.416;6.758;2022-07-29T00:19:07;4.93;;;1.40;;
55260;SDS011;41123;51.416;6.758;2022-07-29T00:21:33;7.17;;;1.60;;
55260;SDS011;41123;51.416;6.758;2022-07-29T00:23:59;4.80;;;1.90;;
55260;SDS011;41123;51.416;6.758;2022-07-29T00:26:26;8.43;;;1.77;;
55260;SDS011;41123;51.416;6.758;2022-07-29T00:28:57;7.00;;;1.57;;
55260;SDS011;41123;51.416;6.758;2022-07-29T00:31:24;5.63;;;1.40;;
55260;SDS011;41123;51.416;6.758;2022-07-29T00:33:51;5.50;;;1.57;;
55260;SDS011;41123;51.416;6.758;2022-07-29T00:36:17;5.20;;;1.50;;
55260;SDS011;41123;51.416;6.758;2022-07-29T00:38:43;5.73;;;1.50;;
55260;SDS011;41123;51.416;6.758;2022-07-29T00:41:11;5.72;;;1.50;;
55260;SDS011;41123;51.416;6.758;2022-07-29T00:43:37;7.65;;;1.70;;
55260;SDS011;41123;51.416;6.758;2022-07-29T00:46:04;6.82;;;1.70;;
55260;SDS011;41123;51.416;6.758;2022-07-29T00:48:30;5.57;;;1.40;;
55260;SDS011;41123;51.416;6.758;2022-07-29T00:50:57;8.20;;;1.30;;
55260;SDS011;41123;51.416;6.758;2022-07-29T00:53:24;5.00;;;1.50;;
55260;SDS011;41123;51.416;6.758;2022-07-29T00:55:50;4.32;;;1.45;;
55260;SDS011;41123;51.416;6.758;2022-07-29T00:58:16;4.68;;;1.30;;
55260;SDS011;41123;51.416;6.758;2022-07-29T01:00:43;6.40;;;1.40;;
55260;SDS011;41123;51.416;6.758;2022-07-29T01:03:09;5.75;;;1.30;;
55260;SDS011;41123;51.416;6.758;2022-07-29T01:05:35;6.72;;;1.50;;
55260;SDS011;41123;51.416;6.758;2022-07-29T01:08:02;4.88;;;1.40;;
55260;SDS011;41123;51.416;6.758;2022-07-29T01:10:28;7.05;;;1.27;;
55260;SDS011;41123;51.416;6.758;2022-07-29T01:12:58;6.55;;;1.50;;
55260;SDS011;41123;51.416;6.758;2022-07-29T01:15:25;9.32;;;1.52;;
55260;SDS011;41123;51.416;6.758;2022-07-29T01:18:01;6.72;;;1.50;;
55260;SDS011;41123;51.416;6.758;2022-07-29T01:23:27;3.78;;;1.52;;
55260;SDS011;41123;51.416;6.758;2022-07-29T01:26:18;3.30;;;1.10;;
55260;SDS011;41123;51.416;6.758;2022-07-29T01:31:27;6.07;;;1.40;;
55260;SDS011;41123;51.416;6.758;2022-07-29T01:33:57;3.95;;;1.30;;
55260;SDS011;41123;51.416;6.758;2022-07-29T01:36:30;5.32;;;1.40;;
55260;SDS011;41123;51.416;6.758;2022-07-29T01:44:46;3.08;;;1.20;;
55260;SDS011;41123;51.416;6.758;2022-07-29T01:47:15;4.53;;;1.27;;
55260;SDS011;41123;51.416;6.758;2022-07-29T01:49:46;5.45;;;1.40;;
55260;SDS011;41123;51.416;6.758;2022-07-29T01:52:27;4.47;;;1.40;;
55260;SDS011;41123;51.416;6.758;2022-07-29T01:54:57;5.97;;;1.40;;
55260;SDS011;41123;51.416;6.758;2022-07-29T01:57:28;4.30;;;1.40;;
55260;SDS011;41123;51.416;6.758;2022-07-29T01:59:56;5.07;;;1.60;;
55260;SDS011;41123;51.416;6.758;2022-07-29T02:02:22;4.30;;;1.60;;
55260;SDS011;41123;51.416;6.758;2022-07-29T02:04:49;4.38;;;1.40;;
55260;SDS011;41123;51.416;6.758;2022-07-29T02:07:17;5.43;;;1.60;;
55260;SDS011;41123;51.416;6.758;2022-07-29T02:09:43;4.88;;;1.58;;
55260;SDS011;41123;51.416;6.758;2022-07-29T02:12:11;4.50;;;1.70;;
55260;SDS011;41123;51.416;6.758;2022-07-29T02:14:47;5.90;;;1.38;;
55260;SDS011;41123;51.416;6.758;2022-07-29T02:17:15;5.93;;;1.50;;
55260;SDS011;41123;51.416;6.758;2022-07-29T02:19:44;4.85;;;1.60;;
55260;SDS011;41123;51.416;6.758;2022-07-29T02:22:10;4.47;;;1.30;;
55260;SDS011;41123;51.416;6.758;2022-07-29T02:24:37;8.45;;;1.70;;
55260;SDS011;41123;51.416;6.758;2022-07-29T02:27:05;7.57;;;1.38;;
55260;SDS011;41123;51.416;6.758;2022-07-29T02:29:33;5.13;;;1.33;;
55260;SDS011;41123;51.416;6.758;2022-07-29T02:32:01;6.68;;;1.30;;
55260;SDS011;41123;51.416;6.758;2022-07-29T02:34:28;6.88;;;1.60;;
55260;SDS011;41123;51.416;6.758;2022-07-29T02:36:55;7.75;;;1.58;;
55260;SDS011;41123;51.416;6.758;2022-07-29T02:39:21;4.82;;;1.50;;
55260;SDS011;41123;51.416;6.758;2022-07-29T02:41:50;5.68;;;1.50;;
55260;SDS011;41123;51.416;6.758;2022-07-29T02:44:17;5.38;;;1.60;;
55260;SDS011;41123;51.416;6.758;2022-07-29T02:46:51;5.82;;;1.33;;
55260;SDS011;41123;51.416;6.758;2022-07-29T02:49:22;8.95;;;1.40;;
55260;SDS011;41123;51.416;6.758;2022-07-29T02:51:54;8.70;;;1.70;;
55260;SDS011;41123;51.416;6.758;2022-07-29T02:56:53;6.68;;;1.48;;
55260;SDS011;41123;51.416;6.758;2022-07-29T02:59:22;4.82;;;1.48;;
55260;SDS011;41123;51.416;6.758;2022-07-29T03:01:49;5.10;;;1.50;;
55260;SDS011;41123;51.416;6.758;2022-07-29T03:04:15;4.90;;;1.25;;
55260;SDS011;41123;51.416;6.758;2022-07-29T03:06:43;4.03;;;1.40;;
55260;SDS011;41123;51.416;6.758;2022-07-29T03:09:10;5.95;;;1.25;;
55260;SDS011;41123;51.416;6.758;2022-07-29T03:11:37;5.07;;;1.30;;
55260;SDS011;41123;51.416;6.758;2022-07-29T03:14:04;6.88;;;1.52;;
55260;SDS011;41123;51.416;6.758;2022-07-29T03:16:31;6.00;;;1.52;;
55260;SDS011;41123;51.416;6.758;2022-07-29T03:19:01;6.13;;;1.45;;
55260;SDS011;41123;51.416;6.758;2022-07-29T03:21:28;4.75;;;1.40;;
55260;SDS011;41123;51.416;6.758;2022-07-29T03:23:55;6.70;;;1.50;;
55260;SDS011;41123;51.416;6.758;2022-07-29T03:26:21;6.78;;;1.42;;
55260;SDS011;41123;51.416;6.758;2022-07-29T03:28:47;6.47;;;1.70;;
55260;SDS011;41123;51.416;6.758;2022-07-29T03:31:13;5.97;;;1.60;;
55260;SDS011;41123;51.416;6.758;2022-07-29T03:33:39;9.00;;;2.30;;
55260;SDS011;41123;51.416;6.758;2022-07-29T03:36:06;5.95;;;2.08;;
55260;SDS011;41123;51.416;6.758;2022-07-29T03:38:33;7.13;;;1.95;;
55260;SDS011;41123;51.416;6.758;2022-07-29T03:41:09;6.07;;;1.75;;
55260;SDS011;41123;51.416;6.758;2022-07-29T03:43:37;7.80;;;1.50;;
55260;SDS011;41123;51.416;6.758;2022-07-29T03:46:04;5.68;;;1.80;;
55260;SDS011;41123;51.416;6.758;2022-07-29T03:48:33;5.70;;;1.80;;
55260;SDS011;41123;51.416;6.758;2022-07-29T03:51:00;7.20;;;1.37;;
55260;SDS011;41123;51.416;6.758;2022-07-29T03:53:27;5.25;;;1.33;;
55260;SDS011;41123;51.416;6.758;2022-07-29T03:55:54;6.68;;;1.50;;
55260;SDS011;41123;51.416;6.758;2022-07-29T03:58:21;5.00;;;1.30;;
55260;SDS011;41123;51.416;6.758;2022-07-29T04:00:48;5.15;;;1.20;;
55260;SDS011;41123;51.416;6.758;2022-07-29T04:03:15;6.93;;;1.40;;
55260;SDS011;41123;51.416;6.758;2022-07-29T04:05:41;6.45;;;1.25;;
55260;SDS011;41123;51.416;6.758;2022-07-29T04:08:07;7.75;;;1.63;;
55260;SDS011;41123;51.416;6.758;2022-07-29T04:10:33;6.95;;;1.67;;
55260;SDS011;41123;51.416;6.758;2022-07-29T04:13:00;7.03;;;1.57;;
55260;SDS011;41123;51.416;6.758;2022-07-29T04:15:26;7.73;;;1.37;;
55260;SDS011;41123;51.416;6.758;2022-07-29T04:17:54;8.68;;;1.85;;
55260;SDS011;41123;51.416;6.758;2022-07-29T04:20:20;7.32;;;1.83;;
55260;SDS011;41123;51.416;6.758;2022-07-29T04:22:46;5.55;;;1.80;;
55260;SDS011;41123;51.416;6.758;2022-07-29T04:25:12;6.07;;;1.85;;
55260;SDS011;41123;51.416;6.758;2022-07-29T04:27:38;8.43;;;2.10;;
55260;SDS011;41123;51.416;6.758;2022-07-29T04:30:25;6.33;;;1.83;;
55260;SDS011;41123;51.416;6.758;2022-07-29T04:32:51;7.80;;;2.50;;
55260;SDS011;41123;51.416;6.758;2022-07-29T04:35:18;9.52;;;2.35;;
55260;SDS011;41123;51.416;6.758;2022-07-29T04:37:44;8.30;;;2.53;;
55260;SDS011;41123;51.416;6.758;2022-07-29T04:40:11;11.02;;;2.90;;
55260;SDS011;41123;51.416;6.758;2022-07-29T04:42:37;12.65;;;2.92;;
55260;SDS011;41123;51.416;6.758;2022-07-29T04:45:04;9.30;;;2.90;;
55260;SDS011;41123;51.416;6.758;2022-07-29T04:47:30;10.00;;;3.13;;
55260;SDS011;41123;51.416;6.758;2022-07-29T04:49:56;7.75;;;2.58;;
55260;SDS011;41123;51.416;6.758;2022-07-29T04:52:22;9.00;;;2.40;;
55260;SDS011;41123;51.416;6.758;2022-07-29T04:54:48;6.00;;;2.22;;
55260;SDS011;41123;51.416;6.758;2022-07-29T04:57:15;7.18;;;2.30;;
55260;SDS011;41123;51.416;6.758;2022-07-29T04:59:41;7.00;;;2.47;;
55260;SDS011;41123;51.416;6.758;2022-07-29T05:02:07;6.00;;;2.30;;
55260;SDS011;41123;51.416;6.758;2022-07-29T05:04:33;7.13;;;2.13;;
55260;SDS011;41123;51.416;6.758;2022-07-29T05:06:59;7.03;;;2.20;;
55260;SDS011;41123;51.416;6.758;2022-07-29T05:09:26;5.63;;;2.00;;
55260;SDS011;41123;51.416;6.758;2022-07-29T05:11:52;6.10;;;2.30;;
55260;SDS011;41123;51.416;6.758;2022-07-29T05:14:18;6.65;;;2.10;;
55260;SDS011;41123;51.416;6.758;2022-07-29T05:16:44;7.35;;;2.10;;
55260;SDS011;41123;51.416;6.758;2022-07-29T05:19:10;7.00;;;2.00;;
55260;SDS011;41123;51.416;6.758;2022-07-29T05:21:36;6.72;;;2.00;;
55260;SDS011;41123;51.416;6.758;2022-07-29T05:24:03;7.82;;;2.10;;
55260;SDS011;41123;51.416;6.758;2022-07-29T05:26:29;5.18;;;2.10;;
55260;SDS011;41123;51.416;6.758;2022-07-29T05:28:55;4.63;;;2.20;;
55260;SDS011;41123;51.416;6.758;2022-07-29T05:31:22;5.57;;;2.30;;
55260;SDS011;41123;51.416;6.758;2022-07-29T05:33:48;9.10;;;2.60;;
55260;SDS011;41123;51.416;6.758;2022-07-29T05:36:14;10.48;;;2.55;;
55260;SDS011;41123;51.416;6.758;2022-07-29T05:38:40;9.07;;;2.47;;
55260;SDS011;41123;51.416;6.758;2022-07-29T05:41:07;8.90;;;3.03;;
55260;SDS011;41123;51.416;6.758;2022-07-29T05:43:33;7.25;;;2.70;;
55260;SDS011;41123;51.416;6.758;2022-07-29T05:45:59;7.78;;;2.30;;
55260;SDS011;41123;51.416;6.758;2022-07-29T05:48:25;7.93;;;2.33;;
55260;SDS011;41123;51.416;6.758;2022-07-29T05:50:51;6.43;;;2.50;;
55260;SDS011;41123;51.416;6.758;2022-07-29T05:53:18;7.35;;;2.15;;
55260;SDS011;41123;51.416;6.758;2022-07-29T05:55:44;12.38;;;2.38;;
55260;SDS011;41123;51.416;6.758;2022-07-29T05:58:10;5.75;;;2.10;;
55260;SDS011;41123;51.416;6.758;2022-07-29T06:00:36;6.68;;;2.05;;
55260;SDS011;41123;51.416;6.758;2022-07-29T06:03:02;6.13;;;2.30;;
55260;SDS011;41123;51.416;6.758;2022-07-29T06:05:29;6.80;;;2.15;;
55260;SDS011;41123;51.416;6.758;2022-07-29T06:07:55;6.57;;;2.00;;
55260;SDS011;41123;51.416;6.758;2022-07-29T06:10:21;4.75;;;2.33;;
55260;SDS011;41123;51.416;6.758;2022-07-29T06:12:48;8.13;;;2.33;;
55260;SDS011;41123;51.416;6.758;2022-07-29T06:15:14;8.02;;;2.47;;
55260;SDS011;41123;51.416;6.758;2022-07-29T06:17:40;8.05;;;2.28;;
55260;SDS011;41123;51.416;6.758;2022-07-29T06:20:07;8.57;;;2.27;;
55260;SDS011;41123;51.416;6.758;2022-07-29T06:22:33;9.68;;;2.25;;
55260;SDS011;41123;51.416;6.758;2022-07-29T06:25:00;8.48;;;2.55;;
55260;SDS011;41123;51.416;6.758;2022-07-29T06:27:26;6.65;;;2.38;;
55260;SDS011;41123;51.416;6.758;2022-07-29T06:29:52;6.80;;;2.50;;
55260;SDS011;41123;51.416;6.758;2022-07-29T06:32:19;9.25;;;2.50;;
55260;SDS011;41123;51.416;6.758;2022-07-29T06:34:46;7.57;;;2.30;;
55260;SDS011;41123;51.416;6.758;2022-07-29T06:37:13;9.10;;;2.55;;
55260;SDS011;41123;51.416;6.758;2022-07-29T06:39:39;9.13;;;2.33;;
55260;SDS011;41123;51.416;6.758;2022-07-29T06:42:06;10.60;;;2.63;;
55260;SDS011;41123;51.416;6.758;2022-07-29T06:44:32;11.57;;;2.75;;
55260;SDS011;41123;51.416;6.758;2022-07-29T06:46:59;8.07;;;2.60;;
55260;SDS011;41123;51.416;6.758;2022-07-29T06:49:25;8.25;;;2.90;;
55260;SDS011;41123;51.416;6.758;2022-07-29T06:51:53;8.30;;;2.42;;
55260;SDS011;41123;51.416;6.758;2022-07-29T06:54:19;10.45;;;2.95;;
55260;SDS011;41123;51.416;6.758;2022-07-29T06:56:46;9.02;;;2.70;;
55260;SDS011;41123;51.416;6.758;2022-07-29T06:59:13;8.23;;;2.90;;
55260;SDS011;41123;51.416;6.758;2022-07-29T07:01:41;7.53;;;2.60;;
55260;SDS011;41123;51.416;6.758;2022-07-29T07:04:07;9.43;;;2.80;;
55260;SDS011;41123;51.416;6.758;2022-07-29T07:06:34;9.55;;;2.90;;
55260;SDS011;41123;51.416;6.758;2022-07-29T07:09:00;7.47;;;2.70;;
55260;SDS011;41123;51.416;6.758;2022-07-29T07:11:27;6.30;;;2.65;;
55260;SDS011;41123;51.416;6.758;2022-07-29T07:13:53;7.70;;;2.83;;
55260;SDS011;41123;51.416;6.758;2022-07-29T07:16:19;11.43;;;2.90;;
55260;SDS011;41123;51.416;6.758;2022-07-29T07:18:45;6.30;;;2.55;;
55260;SDS011;41123;51.416;6.758;2022-07-29T07:21:12;8.00;;;3.00;;
55260;SDS011;41123;51.416;6.758;2022-07-29T07:23:38;6.37;;;2.97;;
55260;SDS011;41123;51.416;6.758;2022-07-29T07:26:04;6.10;;;2.80;;
55260;SDS011;41123;51.416;6.758;2022-07-29T07:28:31;6.82;;;2.83;;
55260;SDS011;41123;51.416;6.758;2022-07-29T07:30:57;8.52;;;3.00;;
55260;SDS011;41123;51.416;6.758;2022-07-29T07:33:23;9.10;;;3.40;;
55260;SDS011;41123;51.416;6.758;2022-07-29T07:35:49;9.23;;;3.30;;
55260;SDS011;41123;51.416;6.758;2022-07-29T07:38:16;7.43;;;2.72;;
55260;SDS011;41123;51.416;6.758;2022-07-29T07:40:42;7.10;;;2.60;;
55260;SDS011;41123;51.416;6.758;2022-07-29T07:43:08;8.00;;;2.70;;
55260;SDS011;41123;51.416;6.758;2022-07-29T07:45:34;9.47;;;2.90;;
55260;SDS011;41123;51.416;6.758;2022-07-29T07:48:02;8.80;;;3.00;;
55260;SDS011;41123;51.416;6.758;2022-07-29T07:50:28;10.93;;;3.00;;
55260;SDS011;41123;51.416;6.758;2022-07-29T07:52:55;6.95;;;2.90;;
55260;SDS011;41123;51.416;6.758;2022-07-29T07:55:25;8.77;;;2.97;;
55260;SDS011;41123;51.416;6.758;2022-07-29T07:57:51;12.27;;;3.42;;
55260;SDS011;41123;51.416;6.758;2022-07-29T08:00:18;11.93;;;3.45;;
55260;SDS011;41123;51.416;6.758;2022-07-29T08:02:44;9.48;;;3.15;;
55260;SDS011;41123;51.416;6.758;2022-07-29T08:05:10;13.85;;;3.90;;
55260;SDS011;41123;51.416;6.758;2022-07-29T08:07:38;13.25;;;4.20;;
55260;SDS011;41123;51.416;6.758;2022-07-29T08:10:05;9.17;;;3.70;;
55260;SDS011;41123;51.416;6.758;2022-07-29T08:12:31;10.43;;;4.13;;
55260;SDS011;41123;51.416;6.758;2022-07-29T08:14:57;12.70;;;4.00;;
55260;SDS011;41123;51.416;6.758;2022-07-29T08:17:23;13.13;;;4.53;;
55260;SDS011;41123;51.416;6.758;2022-07-29T08:19:50;19.30;;;4.27;;
55260;SDS011;41123;51.416;6.758;2022-07-29T08:22:16;9.13;;;3.97;;
55260;SDS011;41123;51.416;6.758;2022-07-29T08:24:42;14.38;;;4.65;;
55260;SDS011;41123;51.416;6.758;2022-07-29T08:27:09;13.98;;;4.30;;
55260;SDS011;41123;51.416;6.758;2022-07-29T08:29:36;11.20;;;4.03;;
55260;SDS011;41123;51.416;6.758;2022-07-29T08:32:03;14.03;;;4.10;;
55260;SDS011;41123;51.416;6.758;2022-07-29T08:34:29;12.30;;;4.40;;
55260;SDS011;41123;51.416;6.758;2022-07-29T08:36:56;14.70;;;4.15;;
55260;SDS011;41123;51.416;6.758;2022-07-29T08:39:23;16.25;;;4.90;;
55260;SDS011;41123;51.416;6.758;2022-07-29T08:41:49;15.50;;;4.80;;
55260;SDS011;41123;51.416;6.758;2022-07-29T08:44:16;15.02;;;4.60;;
55260;SDS011;41123;51.416;6.758;2022-07-29T08:46:42;17.70;;;4.67;;
55260;SDS011;41123;51.416;6.758;2022-07-29T08:49:09;17.52;;;4.30;;
55260;SDS011;41123;51.416;6.758;2022-07-29T08:51:35;14.77;;;4.57;;
55260;SDS011;41123;51.416;6.758;2022-07-29T08:54:02;15.43;;;4.45;;
55260;SDS011;41123;51.416;6.758;2022-07-29T08:56:28;16.65;;;4.57;;
55260;SDS011;41123;51.416;6.758;2022-07-29T08:58:55;12.50;;;4.25;;
55260;SDS011;41123;51.416;6.758;2022-07-29T09:01:24;13.05;;;4.45;;
55260;SDS011;41123;51.416;6.758;2022-07-29T09:03:51;12.60;;;3.90;;
55260;SDS011;41123;51.416;6.758;2022-07-29T09:06:20;15.10;;;3.90;;
55260;SDS011;41123;51.416;6.758;2022-07-29T09:08:47;13.02;;;4.07;;
55260;SDS011;41123;51.416;6.758;2022-07-29T09:11:14;14.43;;;4.40;;
55260;SDS011;41123;51.416;6.758;2022-07-29T09:13:40;12.15;;;4.45;;
55260;SDS011;41123;51.416;6.758;2022-07-29T09:16:06;10.95;;;4.28;;
55260;SDS011;41123;51.416;6.758;2022-07-29T09:21:06;13.00;;;4.50;;
55260;SDS011;41123;51.416;6.758;2022-07-29T09:24:08;15.40;;;4.70;;
55260;SDS011;41123;51.416;6.758;2022-07-29T09:26:36;10.65;;;4.18;;
55260;SDS011;41123;51.416;6.758;2022-07-29T09:29:19;14.32;;;4.20;;
55260;SDS011;41123;51.416;6.758;2022-07-29T09:31:47;13.40;;;4.28;;
55260;SDS011;41123;51.416;6.758;2022-07-29T09:34:14;15.87;;;4.87;;
55260;SDS011;41123;51.416;6.758;2022-07-29T09:36:42;13.82;;;4.97;;
55260;SDS011;41123;51.416;6.758;2022-07-29T09:39:08;13.80;;;4.87;;
55260;SDS011;41123;51.416;6.758;2022-07-29T09:41:48;10.32;;;4.65;;
55260;SDS011;41123;51.416;6.758;2022-07-29T09:44:15;13.00;;;5.03;;
55260;SDS011;41123;51.416;6.758;2022-07-29T09:49:23;13.73;;;5.28;;
55260;SDS011;41123;51.416;6.758;2022-07-29T09:52:07;16.23;;;5.18;;
55260;SDS011;41123;51.416;6.758;2022-07-29T09:54:34;13.05;;;4.93;;
55260;SDS011;41123;51.416;6.758;2022-07-29T09:57:04;10.87;;;4.43;;
55260;SDS011;41123;51.416;6.758;2022-07-29T09:59:30;14.32;;;4.53;;
55260;SDS011;41123;51.416;6.758;2022-07-29T10:01:56;12.63;;;4.97;;
55260;SDS011;41123;51.416;6.758;2022-07-29T10:04:23;12.93;;;5.27;;
55260;SDS011;41123;51.416;6.758;2022-07-29T10:06:58;12.07;;;5.07;;
55260;SDS011;41123;51.416;6.758;2022-07-29T10:09:25;11.38;;;4.47;;
55260;SDS011;41123;51.416;6.758;2022-07-29T10:14:34;13.00;;;4.85;;
55260;SDS011;41123;51.416;6.758;2022-07-29T10:17:01;14.43;;;4.90;;
55260;SDS011;41123;51.416;6.758;2022-07-29T10:19:30;14.27;;;4.88;;
55260;SDS011;41123;51.416;6.758;2022-07-29T10:21:57;13.38;;;4.75;;
55260;SDS011;41123;51.416;6.758;2022-07-29T10:24:27;14.73;;;5.05;;
55260;SDS011;41123;51.416;6.758;2022-07-29T10:26:58;11.00;;;4.78;;
55260;SDS011;41123;51.416;6.758;2022-07-29T10:29:25;13.48;;;4.72;;
55260;SDS011;41123;51.416;6.758;2022-07-29T10:44:45;16.45;;;6.65;;
55260;SDS011;41123;51.416;6.758;2022-07-29T10:47:19;18.98;;;6.70;;
55260;SDS011;41123;51.416;6.758;2022-07-29T10:50:04;10.98;;;4.70;;
55260;SDS011;41123;51.416;6.758;2022-07-29T10:58:12;11.45;;;4.10;;
55260;SDS011;41123;51.416;6.758;2022-07-29T11:00:38;8.65;;;3.95;;
55260;SDS011;41123;51.416;6.758;2022-07-29T11:03:05;10.23;;;4.00;;
55260;SDS011;41123;51.416;6.758;2022-07-29T11:05:51;12.13;;;3.67;;
55260;SDS011;41123;51.416;6.758;2022-07-29T11:08:20;9.00;;;3.30;;
55260;SDS011;41123;51.416;6.758;2022-07-29T11:10:49;9.20;;;3.28;;
55260;SDS011;41123;51.416;6.758;2022-07-29T11:16:01;7.70;;;2.97;;
55260;SDS011;41123;51.416;6.758;2022-07-29T11:18:27;9.38;;;4.10;;
55260;SDS011;41123;51.416;6.758;2022-07-29T11:20:53;12.25;;;4.55;;
55260;SDS011;41123;51.416;6.758;2022-07-29T11:23:21;15.30;;;6.53;;
55260;SDS011;41123;51.416;6.758;2022-07-29T11:31:16;8.93;;;3.60;;
55260;SDS011;41123;51.416;6.758;2022-07-29T11:33:45;12.75;;;4.43;;
55260;SDS011;41123;51.416;6.758;2022-07-29T11:36:12;18.77;;;6.13;;
55260;SDS011;41123;51.416;6.758;2022-07-29T11:38:39;12.80;;;3.90;;
55260;SDS011;41123;51.416;6.758;2022-07-29T11:41:24;20.63;;;6.03;;
55260;SDS011;41123;51.416;6.758;2022-07-29T11:43:52;11.65;;;4.32;;
55260;SDS011;41123;51.416;6.758;2022-07-29T11:49:03;10.75;;;4.10;;
55260;SDS011;41123;51.416;6.758;2022-07-29T11:51:29;11.73;;;5.45;;
55260;SDS011;41123;51.416;6.758;2022-07-29T11:53:56;11.52;;;4.30;;
55260;SDS011;41123;51.416;6.758;2022-07-29T11:56:23;12.23;;;4.60;;
55260;SDS011;41123;51.416;6.758;2022-07-29T11:59:05;13.17;;;4.90;;
55260;SDS011;41123;51.416;6.758;2022-07-29T12:01:36;13.10;;;4.55;;
55260;SDS011;41123;51.416;6.758;2022-07-29T12:07:06;10.02;;;4.20;;
55260;SDS011;41123;51.416;6.758;2022-07-29T12:09:33;10.65;;;4.70;;
55260;SDS011;41123;51.416;6.758;2022-07-29T12:11:59;16.10;;;5.25;;
55260;SDS011;41123;51.416;6.758;2022-07-29T12:14:29;12.32;;;4.40;;
55260;SDS011;41123;51.416;6.758;2022-07-29T12:16:56;13.57;;;4.30;;
55260;SDS011;41123;51.416;6.758;2022-07-29T12:19:23;12.05;;;4.10;;
55260;SDS011;41123;51.416;6.758;2022-07-29T12:21:53;10.23;;;3.50;;
55260;SDS011;41123;51.416;6.758;2022-07-29T12:24:20;12.50;;;4.25;;
55260;SDS011;41123;51.416;6.758;2022-07-29T12:26:50;10.20;;;4.10;;
55260;SDS011;41123;51.416;6.758;2022-07-29T12:29:20;12.73;;;4.07;;
55260;SDS011;41123;51.416;6.758;2022-07-29T12:31:51;11.60;;;3.65;;
55260;SDS011;41123;51.416;6.758;2022-07-29T12:34:19;11.60;;;3.60;;
55260;SDS011;41123;51.416;6.758;2022-07-29T12:36:52;9.95;;;3.60;;
55260;SDS011;41123;51.416;6.758;2022-07-29T12:39:21;8.63;;;3.55;;
55260;SDS011;41123;51.416;6.758;2022-07-29T12:41:51;13.15;;;3.50;;
55260;SDS011;41123;51.416;6.758;2022-07-29T12:44:17;9.55;;;3.42;;
55260;SDS011;41123;51.416;6.758;2022-07-29T12:46:44;11.48;;;3.58;;
55260;SDS011;41123;51.416;6.758;2022-07-29T12:49:20;11.10;;;3.55;;
55260;SDS011;41123;51.416;6.758;2022-07-29T12:51:47;8.40;;;3.67;;
55260;SDS011;41123;51.416;6.758;2022-07-29T12:54:14;11.73;;;3.40;;
55260;SDS011;41123;51.416;6.758;2022-07-29T12:56:41;12.30;;;3.50;;
55260;SDS011;41123;51.416;6.758;2022-07-29T13:01:40;11.13;;;3.20;;
55260;SDS011;41123;51.416;6.758;2022-07-29T13:04:06;8.88;;;3.50;;
55260;SDS011;41123;51.416;6.758;2022-07-29T13:06:57;9.20;;;3.40;;
55260;SDS011;41123;51.416;6.758;2022-07-29T13:09:22;9.40;;;3.70;;
55260;SDS011;41123;51.416;6.758;2022-07-29T13:11:49;10.00;;;3.40;;
55260;SDS011;41123;51.416;6.758;2022-07-29T13:19:39;9.52;;;3.08;;
55260;SDS011;41123;51.416;6.758;2022-07-29T13:22:10;11.10;;;3.50;;
55260;SDS011;41123;51.416;6.758;2022-07-29T13:24:46;11.48;;;4.00;;
55260;SDS011;41123;51.416;6.758;2022-07-29T13:27:13;11.20;;;3.65;;
55260;SDS011;41123;51.416;6.758;2022-07-29T13:29:40;13.20;;;4.10;;
55260;SDS011;41123;51.416;6.758;2022-07-29T13:32:06;11.43;;;3.42;;
55260;SDS011;41123;51.416;6.758;2022-07-29T13:34:32;14.43;;;3.45;;
55260;SDS011;41123;51.416;6.758;2022-07-29T13:36:58;8.50;;;4.00;;
55260;SDS011;41123;51.416;6.758;2022-07-29T13:39:25;10.38;;;3.75;;
55260;SDS011;41123;51.416;6.758;2022-07-29T13:41:51;12.48;;;3.90;;
55260;SDS011;41123;51.416;6.758;2022-07-29T13:44:17;11.35;;;3.70;;
55260;SDS011;41123;51.416;6.758;2022-07-29T13:46:43;11.27;;;4.05;;
55260;SDS011;41123;51.416;6.758;2022-07-29T13:49:10;9.83;;;3.40;;
55260;SDS011;41123;51.416;6.758;2022-07-29T13:51:36;11.00;;;3.60;;
55260;SDS011;41123;51.416;6.758;2022-07-29T13:54:03;12.25;;;3.83;;
55260;SDS011;41123;51.416;6.758;2022-07-29T13:56:29;8.23;;;3.60;;
55260;SDS011;41123;51.416;6.758;2022-07-29T13:58:55;13.52;;;4.05;;
55260;SDS011;41123;51.416;6.758;2022-07-29T14:01:22;12.18;;;3.83;;
55260;SDS011;41123;51.416;6.758;2022-07-29T14:03:48;10.98;;;3.85;;
55260;SDS011;41123;51.416;6.758;2022-07-29T14:06:15;11.35;;;4.20;;
55260;SDS011;41123;51.416;6.758;2022-07-29T14:08:41;11.55;;;4.18;;
55260;SDS011;41123;51.416;6.758;2022-07-29T14:11:08;8.43;;;3.50;;
55260;SDS011;41123;51.416;6.758;2022-07-29T14:13:34;12.88;;;3.95;;
55260;SDS011;41123;51.416;6.758;2022-07-29T14:16:00;9.93;;;3.97;;
55260;SDS011;41123;51.416;6.758;2022-07-29T14:18:26;12.43;;;4.30;;
55260;SDS011;41123;51.416;6.758;2022-07-29T14:20:53;12.00;;;5.47;;
55260;SDS011;41123;51.416;6.758;2022-07-29T14:23:19;14.60;;;5.15;;
55260;SDS011;41123;51.416;6.758;2022-07-29T14:25:45;11.68;;;4.45;;
55260;SDS011;41123;51.416;6.758;2022-07-29T14:32:00;10.30;;;3.63;;
55260;SDS011;41123;51.416;6.758;2022-07-29T14:34:26;12.02;;;3.33;;
55260;SDS011;41123;51.416;6.758;2022-07-29T14:36:53;10.25;;;2.92;;
55260;SDS011;41123;51.416;6.758;2022-07-29T14:39:21;9.02;;;3.00;;
55260;SDS011;41123;51.416;6.758;2022-07-29T14:41:48;10.98;;;2.92;;
55260;SDS011;41123;51.416;6.758;2022-07-29T14:44:14;9.70;;;2.97;;
55260;SDS011;41123;51.416;6.758;2022-07-29T14:46:40;11.90;;;3.60;;
55260;SDS011;41123;51.416;6.758;2022-07-29T14:49:07;13.75;;;3.13;;
55260;SDS011;41123;51.416;6.758;2022-07-29T14:54:24;11.63;;;2.80;;
55260;SDS011;41123;51.416;6.758;2022-07-29T14:56:51;11.07;;;2.45;;
55260;SDS011;41123;51.416;6.758;2022-07-29T14:59:20;9.38;;;2.80;;
55260;SDS011;41123;51.416;6.758;2022-07-29T15:01:46;10.33;;;2.83;;
55260;SDS011;41123;51.416;6.758;2022-07-29T15:04:12;10.23;;;2.60;;
55260;SDS011;41123;51.416;6.758;2022-07-29T15:06:39;10.50;;;2.90;;
55260;SDS011;41123;51.416;6.758;2022-07-29T15:09:05;9.07;;;2.90;;
55260;SDS011;41123;51.416;6.758;2022-07-29T15:15:19;11.20;;;3.20;;
55260;SDS011;41123;51.416;6.758;2022-07-29T15:21:04;10.48;;;3.00;;
55260;SDS011;41123;51.416;6.758;2022-07-29T15:23:32;10.73;;;3.20;;
55260;SDS011;41123;51.416;6.758;2022-07-29T15:26:01;11.70;;;3.00;;
55260;SDS011;41123;51.416;6.758;2022-07-29T15:28:27;9.77;;;2.83;;
55260;SDS011;41123;51.416;6.758;2022-07-29T15:30:53;9.27;;;2.75;;
55260;SDS011;41123;51.416;6.758;2022-07-29T15:33:20;10.43;;;2.65;;
55260;SDS011;41123;51.416;6.758;2022-07-29T15:35:46;7.05;;;2.58;;
55260;SDS011;41123;51.416;6.758;2022-07-29T15:38:12;10.82;;;2.53;;
55260;SDS011;41123;51.416;6.758;2022-07-29T15:40:38;7.88;;;2.30;;
55260;SDS011;41123;51.416;6.758;2022-07-29T15:43:08;8.75;;;2.30;;
55260;SDS011;41123;51.416;6.758;2022-07-29T15:45:38;6.55;;;1.90;;
55260;SDS011;41123;51.416;6.758;2022-07-29T15:48:05;7.22;;;2.25;;
55260;SDS011;41123;51.416;6.758;2022-07-29T15:50:32;9.20;;;2.20;;
55260;SDS011;41123;51.416;6.758;2022-07-29T15:52:58;5.57;;;2.20;;
55260;SDS011;41123;51.416;6.758;2022-07-29T15:55:24;6.32;;;2.00;;
55260;SDS011;41123;51.416;6.758;2022-07-29T15:57:51;16.88;;;2.17;;
55260;SDS011;41123;51.416;6.758;2022-07-29T16:00:17;6.00;;;1.90;;
55260;SDS011;41123;51.416;6.758;2022-07-29T16:02:43;7.20;;;2.03;;